This is the latest recevied weather packets stored in our database for station/object G7UKK-10. If no packets are shown the sender has not sent any weather packets the latest 10 day(s).
| Time | Temp. | Humidity | Pressure | Rain* | Wind** | Luminosity | Snow |
|---|---|---|---|---|---|---|---|
| 1777758917 | 11.67° C | 89% | 1013.3 hPa | 1.52 mm | - | - | - |
| 1777758017 | 12.22° C | 88% | 1013.5 hPa | 1.27 mm | - | - | - |
| 1777757117 | 12.22° C | 85% | 1013.8 hPa | 0.76 mm | - | - | - |
| 1777756217 | 13.33° C | 80% | 1013.9 hPa | 0.25 mm | - | - | - |
| 1777755317 | 13.33° C | 78% | 1013.9 hPa | 0 mm | - | - | - |
| 1777754417 | 13.89° C | 76% | 1014 hPa | 0 mm | - | - | - |
| 1777753517 | 13.89° C | 76% | 1013.9 hPa | 0 mm | - | - | - |
| 1777752617 | 14.44° C | 75% | 1014 hPa | 0 mm | - | - | - |
| 1777751717 | 14.44° C | 74% | 1014 hPa | 0 mm | - | - | - |
| 1777750817 | 14.44° C | 73% | 1014.2 hPa | 0 mm | - | - | - |
| 1777749917 | 14.44° C | 73% | 1014 hPa | 0 mm | - | - | - |
| 1777749017 | 14.44° C | 73% | 1013.9 hPa | 0 mm | - | - | - |
| 1777748117 | 15° C | 72% | 1013.9 hPa | 0 mm | - | - | - |
| 1777747217 | 15° C | 72% | 1014 hPa | 0 mm | - | - | - |
| 1777746317 | 15.56° C | 71% | 1014 hPa | 0 mm | - | - | - |
| 1777745417 | 16.11° C | 67% | 1013.8 hPa | 0 mm | - | - | - |
| 1777744517 | 16.11° C | 68% | 1014.2 hPa | 0 mm | - | - | - |
| 1777743617 | 16.11° C | 68% | 1014.1 hPa | 0 mm | - | - | - |
| 1777742717 | 16.11° C | 67% | 1014.3 hPa | 0 mm | - | - | - |
| 1777741817 | 16.67° C | 64% | 1014.5 hPa | 0 mm | - | - | - |
| 1777740917 | 16.67° C | 64% | 1014 hPa | 0 mm | - | - | - |
| 1777740017 | 16.67° C | 64% | 1014.8 hPa | 0 mm | - | - | - |
| 1777739117 | 16.67° C | 65% | 1014.6 hPa | 0 mm | - | - | - |
| 1777738217 | 16.67° C | 64% | 1014.8 hPa | 0 mm | - | - | - |
| 1777737317 | 16.67° C | 65% | 1014.9 hPa | 0 mm | - | - | - |
* Rain latest hour (hover to see other rain measurements)
** Current wind speed in m/s (hover to see current wind gust speed)